createdAt,value
2022-10-19T00:02:09.122Z,12.91
2022-10-19T00:04:35.544Z,12.80
2022-10-19T00:07:01.886Z,12.78
2022-10-19T00:09:29.136Z,12.83
2022-10-19T00:11:56.217Z,12.76
2022-10-19T00:14:23.732Z,12.87
2022-10-19T00:16:52.269Z,12.91
2022-10-19T00:19:22.073Z,12.77
2022-10-19T00:24:20.507Z,12.92
2022-10-19T00:26:47.172Z,12.90
2022-10-19T00:29:14.554Z,12.80
2022-10-19T00:31:41.777Z,12.81
2022-10-19T00:34:08.257Z,12.73
2022-10-19T00:36:38.088Z,12.76
2022-10-19T00:39:06.297Z,12.84
2022-10-19T00:41:35.543Z,12.93
2022-10-19T00:44:03.645Z,12.82
2022-10-19T00:46:32.630Z,12.76
2022-10-19T00:49:10.798Z,12.75
2022-10-19T00:51:40.645Z,12.91
2022-10-19T00:54:09.027Z,12.87
2022-10-19T00:56:38.126Z,12.90
2022-10-19T00:59:06.179Z,12.85
2022-10-19T01:01:34.108Z,12.75
2022-10-19T01:04:01.501Z,12.91
2022-10-19T01:06:28.529Z,12.96
2022-10-19T01:08:55.026Z,13.12
2022-10-19T01:11:43.088Z,13.07
2022-10-19T01:14:21.718Z,13.10
2022-10-19T01:16:58.825Z,13.00
2022-10-19T01:19:38.185Z,13.17
2022-10-19T01:22:36.430Z,13.00
2022-10-19T01:25:23.001Z,12.95
2022-10-19T01:28:11.170Z,12.90
2022-10-19T01:30:57.426Z,12.83
2022-10-19T01:33:29.433Z,12.99
2022-10-19T01:36:05.900Z,12.94
2022-10-19T01:38:50.310Z,12.91
2022-10-19T01:41:38.020Z,12.72
2022-10-19T01:44:13.916Z,12.73
2022-10-19T01:46:43.641Z,12.81
2022-10-19T01:49:28.298Z,12.81
2022-10-19T01:51:59.844Z,12.86
2022-10-19T01:54:30.845Z,12.86
2022-10-19T01:56:59.949Z,12.88
2022-10-19T01:59:26.433Z,12.84
2022-10-19T02:01:54.662Z,12.87
2022-10-19T02:04:23.589Z,12.74
2022-10-19T02:06:52.876Z,12.84
2022-10-19T02:09:20.149Z,12.67
2022-10-19T02:11:56.923Z,12.73
2022-10-19T02:14:29.301Z,12.59
2022-10-19T02:17:14.665Z,12.28
2022-10-19T02:19:41.565Z,12.58
2022-10-19T02:22:08.202Z,12.69
2022-10-19T02:24:34.595Z,12.66
2022-10-19T02:27:04.746Z,12.44
2022-10-19T02:29:33.285Z,12.50
2022-10-19T02:32:00.948Z,12.39
2022-10-19T02:34:27.754Z,12.48
2022-10-19T02:36:55.175Z,12.47
2022-10-19T02:39:22.245Z,12.48
2022-10-19T02:42:12.614Z,12.40
2022-10-19T02:44:57.326Z,12.35
2022-10-19T02:47:47.807Z,12.43
2022-10-19T02:50:14.428Z,12.48
2022-10-19T02:52:41.328Z,12.34
2022-10-19T02:55:08.785Z,12.40
2022-10-19T02:57:36.043Z,12.40
2022-10-19T03:00:05.214Z,12.47
2022-10-19T03:02:31.621Z,12.41
2022-10-19T03:04:58.062Z,12.31
2022-10-19T03:07:25.150Z,12.40
2022-10-19T03:09:51.522Z,12.46
2022-10-19T03:12:18.490Z,12.52
2022-10-19T03:14:44.822Z,12.47
2022-10-19T03:17:11.410Z,12.38
2022-10-19T03:19:38.000Z,12.44
2022-10-19T03:22:04.645Z,12.44
2022-10-19T03:24:32.035Z,12.51
2022-10-19T03:26:58.414Z,12.45
2022-10-19T03:29:24.953Z,12.50
2022-10-19T03:31:51.273Z,12.46
2022-10-19T03:34:17.639Z,12.40
2022-10-19T03:36:44.006Z,12.35
2022-10-19T03:39:13.655Z,12.44
2022-10-19T03:41:40.806Z,12.02
2022-10-19T03:44:08.203Z,12.16
2022-10-19T03:46:35.428Z,12.35
2022-10-19T03:49:02.285Z,12.20
2022-10-19T03:51:30.159Z,12.26
2022-10-19T03:53:59.989Z,12.20
2022-10-19T03:56:28.494Z,12.10
2022-10-19T03:58:56.480Z,12.17
2022-10-19T04:01:25.976Z,12.02
2022-10-19T04:04:04.021Z,12.17
2022-10-19T04:06:34.519Z,12.24
2022-10-19T04:09:01.659Z,12.26
2022-10-19T04:11:29.709Z,12.12
2022-10-19T04:13:57.610Z,12.22
2022-10-19T04:16:25.798Z,12.06
2022-10-19T04:18:53.198Z,12.07
2022-10-19T04:21:25.678Z,12.08
2022-10-19T04:23:54.497Z,12.11
2022-10-19T04:26:20.893Z,11.91
2022-10-19T04:28:47.382Z,11.98
2022-10-19T04:31:14.053Z,12.29
2022-10-19T04:33:40.940Z,12.19
2022-10-19T04:36:09.337Z,12.27
2022-10-19T04:38:36.597Z,12.20
2022-10-19T04:41:09.998Z,12.19
2022-10-19T04:43:36.949Z,12.22
2022-10-19T04:46:22.952Z,12.11
2022-10-19T04:48:49.541Z,12.07
2022-10-19T04:51:16.591Z,11.96
2022-10-19T04:53:43.526Z,12.12
2022-10-19T04:56:14.075Z,11.86
2022-10-19T04:58:40.695Z,12.03
2022-10-19T05:01:17.882Z,11.82
2022-10-19T05:03:44.947Z,11.96
2022-10-19T05:06:12.791Z,11.99
2022-10-19T05:08:39.269Z,12.14
2022-10-19T05:11:14.336Z,12.10
2022-10-19T05:13:41.257Z,12.02
2022-10-19T05:16:10.678Z,12.04
2022-10-19T05:18:37.015Z,12.04
2022-10-19T05:21:06.759Z,11.90
2022-10-19T05:26:06.126Z,12.24
2022-10-19T05:28:33.281Z,12.12
2022-10-19T05:31:14.466Z,12.11
2022-10-19T05:33:41.768Z,11.86
2022-10-19T05:36:12.224Z,11.91
2022-10-19T05:38:38.565Z,12.03
2022-10-19T05:41:05.029Z,11.94
2022-10-19T05:43:31.326Z,11.78
2022-10-19T05:45:57.649Z,11.97
2022-10-19T05:48:24.304Z,11.71
2022-10-19T05:50:55.172Z,11.85
2022-10-19T05:53:21.608Z,11.89
2022-10-19T05:55:47.960Z,11.97
2022-10-19T05:58:14.361Z,11.90
2022-10-19T06:00:40.740Z,11.97
2022-10-19T06:03:07.042Z,11.82
2022-10-19T06:05:36.389Z,11.89
2022-10-19T06:08:02.834Z,11.89
2022-10-19T06:10:29.173Z,11.94
2022-10-19T06:12:55.486Z,11.75
2022-10-19T06:15:21.829Z,11.71
2022-10-19T06:17:48.199Z,11.70
2022-10-19T06:20:14.672Z,11.56
2022-10-19T06:22:42.346Z,11.68
2022-10-19T06:25:09.080Z,11.53
2022-10-19T06:27:35.782Z,11.53
2022-10-19T06:30:02.904Z,11.66
2022-10-19T06:32:29.295Z,11.77
2022-10-19T06:34:56.657Z,11.83
2022-10-19T06:37:23.209Z,11.76
2022-10-19T06:39:49.617Z,11.94
2022-10-19T06:42:15.971Z,11.77
2022-10-19T06:44:42.291Z,11.99
2022-10-19T06:47:08.650Z,12.00
2022-10-19T06:49:35.818Z,11.90
2022-10-19T06:52:02.703Z,11.68
2022-10-19T06:54:29.437Z,11.84
2022-10-19T06:56:55.871Z,11.80
2022-10-19T06:59:22.303Z,11.94
2022-10-19T07:01:48.638Z,12.05
2022-10-19T07:04:15.042Z,11.98
2022-10-19T07:06:41.439Z,12.13
2022-10-19T07:09:07.875Z,12.07
2022-10-19T07:11:34.462Z,11.95
2022-10-19T07:14:00.866Z,12.17
2022-10-19T07:16:27.197Z,12.16
2022-10-19T07:18:53.934Z,12.26
2022-10-19T07:21:22.311Z,12.07
2022-10-19T07:23:48.878Z,12.32
2022-10-19T07:26:18.048Z,12.31
2022-10-19T07:28:46.990Z,12.28
2022-10-19T07:31:20.464Z,12.24
2022-10-19T07:33:47.757Z,12.23
2022-10-19T07:36:14.206Z,12.22
2022-10-19T07:38:41.341Z,12.31
2022-10-19T07:41:11.038Z,12.26
2022-10-19T07:43:37.400Z,12.32
2022-10-19T07:46:07.089Z,12.41
2022-10-19T07:48:34.702Z,12.44
2022-10-19T07:51:03.121Z,12.43
2022-10-19T07:53:29.564Z,12.43
2022-10-19T07:55:56.163Z,12.43
2022-10-19T07:58:22.550Z,12.52
2022-10-19T08:00:48.978Z,12.50
2022-10-19T08:06:03.413Z,12.43
2022-10-19T08:08:30.315Z,12.46
2022-10-19T08:10:57.273Z,12.50
2022-10-19T08:13:23.902Z,12.45
2022-10-19T08:15:50.329Z,12.52
2022-10-19T08:18:18.324Z,12.59
2022-10-19T08:20:44.983Z,12.48
2022-10-19T08:23:11.302Z,12.63
2022-10-19T08:25:37.688Z,12.60
2022-10-19T08:28:04.144Z,12.52
2022-10-19T08:30:30.455Z,12.59
2022-10-19T08:32:56.786Z,12.65
2022-10-19T08:35:23.209Z,12.59
2022-10-19T08:37:49.932Z,12.52
2022-10-19T08:40:24.019Z,12.67
2022-10-19T08:43:17.813Z,12.56
2022-10-19T08:46:17.143Z,12.57
2022-10-19T08:48:43.640Z,12.56
2022-10-19T08:51:13.014Z,12.67
2022-10-19T08:53:45.442Z,12.71
2022-10-19T08:56:51.549Z,12.65
2022-10-19T08:59:40.663Z,12.65
2022-10-19T09:02:13.673Z,12.66
2022-10-19T09:04:42.748Z,12.55
2022-10-19T09:07:24.329Z,12.67
2022-10-19T09:10:14.681Z,12.74
2022-10-19T09:12:59.198Z,12.95
2022-10-19T09:15:41.478Z,13.09
2022-10-19T09:18:13.818Z,13.02
2022-10-19T09:20:44.452Z,13.01
2022-10-19T09:23:34.016Z,13.09
2022-10-19T09:26:00.389Z,13.15
2022-10-19T09:28:43.726Z,13.11
2022-10-19T09:31:15.613Z,13.01
2022-10-19T09:33:45.209Z,13.06
2022-10-19T09:36:22.279Z,13.16
2022-10-19T09:38:50.142Z,13.16
2022-10-19T09:41:22.448Z,13.25
2022-10-19T09:43:53.823Z,13.25
2022-10-19T09:46:27.767Z,13.33
2022-10-19T09:48:54.150Z,13.36
2022-10-19T09:51:20.986Z,13.35
2022-10-19T09:53:51.836Z,13.40
2022-10-19T09:56:21.228Z,13.26
2022-10-19T09:58:50.208Z,13.43
2022-10-19T10:01:43.043Z,13.36
2022-10-19T10:04:14.794Z,13.29
2022-10-19T10:06:43.470Z,13.21
2022-10-19T10:09:23.676Z,13.20
2022-10-19T10:11:51.337Z,13.22
2022-10-19T10:14:25.709Z,13.45
2022-10-19T10:17:04.100Z,13.23
2022-10-19T10:19:32.933Z,13.36
2022-10-19T10:22:00.108Z,13.43
2022-10-19T10:24:29.113Z,13.30
2022-10-19T10:26:58.364Z,13.36
2022-10-19T10:29:29.830Z,13.27
2022-10-19T10:32:19.964Z,13.20
2022-10-19T10:35:01.075Z,13.26
2022-10-19T10:37:29.998Z,13.34
2022-10-19T10:40:00.524Z,13.36
2022-10-19T10:42:36.285Z,13.26
2022-10-19T10:45:02.890Z,13.34
2022-10-19T10:47:30.007Z,13.44
2022-10-19T10:50:21.871Z,13.53
2022-10-19T10:53:02.715Z,13.59
2022-10-19T10:55:30.920Z,13.40
2022-10-19T10:58:15.787Z,13.50
2022-10-19T11:00:42.947Z,13.36
2022-10-19T11:03:26.079Z,13.50
2022-10-19T11:06:00.364Z,13.44
2022-10-19T11:08:59.779Z,13.35
2022-10-19T11:11:39.370Z,13.54
2022-10-19T11:14:17.609Z,13.50
2022-10-19T11:16:47.737Z,13.45
2022-10-19T11:19:18.168Z,13.46
2022-10-19T11:21:55.948Z,13.55
2022-10-19T11:24:26.396Z,13.32
2022-10-19T11:27:21.788Z,13.34
2022-10-19T11:30:18.360Z,13.56
2022-10-19T11:32:56.864Z,13.64
2022-10-19T11:35:54.462Z,13.55
2022-10-19T11:38:30.061Z,13.60
2022-10-19T11:41:23.403Z,13.63
2022-10-19T11:44:17.699Z,13.62
2022-10-19T11:46:59.055Z,13.53
2022-10-19T11:49:40.082Z,13.49
2022-10-19T11:52:23.668Z,13.42
2022-10-19T11:55:19.382Z,13.21
2022-10-19T11:57:48.750Z,13.26
2022-10-19T12:00:37.580Z,13.40
2022-10-19T12:03:49.668Z,13.52
2022-10-19T12:06:31.620Z,13.54
2022-10-19T12:09:09.928Z,13.61
2022-10-19T12:11:58.030Z,13.54
2022-10-19T12:14:30.264Z,13.52
2022-10-19T12:17:02.058Z,13.48
2022-10-19T12:19:40.653Z,13.37
2022-10-19T12:22:15.242Z,13.36
2022-10-19T12:24:41.637Z,13.35
2022-10-19T12:27:13.629Z,13.29
2022-10-19T12:29:44.259Z,13.31
2022-10-19T12:32:15.092Z,13.55
2022-10-19T12:34:48.888Z,13.31
2022-10-19T12:37:47.218Z,13.36
2022-10-19T12:40:25.309Z,13.52
2022-10-19T12:43:13.198Z,13.59
2022-10-19T12:45:45.113Z,13.55
2022-10-19T12:48:15.889Z,13.64
2022-10-19T12:50:48.342Z,13.45
2022-10-19T12:53:38.546Z,13.54
2022-10-19T12:56:26.788Z,13.62
2022-10-19T12:58:59.730Z,13.57
2022-10-19T13:01:41.095Z,13.53
2022-10-19T13:04:15.670Z,13.54
2022-10-19T13:06:51.174Z,13.54
2022-10-19T13:09:36.289Z,13.63
2022-10-19T13:12:19.346Z,13.54
2022-10-19T13:14:48.054Z,13.56
2022-10-19T13:17:50.978Z,13.65
2022-10-19T13:20:17.285Z,13.66
2022-10-19T13:22:50.741Z,13.69
2022-10-19T13:25:17.176Z,13.71
2022-10-19T13:27:44.886Z,13.73
2022-10-19T13:30:39.257Z,13.71
2022-10-19T13:33:31.248Z,13.78
2022-10-19T13:36:00.446Z,13.68
2022-10-19T13:38:34.015Z,13.61
2022-10-19T13:41:09.098Z,13.50
2022-10-19T13:43:50.258Z,13.58
2022-10-19T13:46:21.286Z,13.59
2022-10-19T13:49:17.750Z,13.52
2022-10-19T13:52:08.326Z,13.47
2022-10-19T13:54:43.855Z,13.32
2022-10-19T13:57:16.260Z,13.41
2022-10-19T13:59:45.474Z,13.28
2022-10-19T14:02:37.396Z,13.38
2022-10-19T14:05:12.231Z,13.22
2022-10-19T14:07:55.147Z,13.26
2022-10-19T14:10:28.283Z,13.19
2022-10-19T14:13:00.662Z,13.22
2022-10-19T14:15:30.798Z,13.17
2022-10-19T14:17:59.551Z,13.15
2022-10-19T14:20:37.616Z,13.24
2022-10-19T14:23:28.703Z,13.05
2022-10-19T14:26:03.322Z,12.94
2022-10-19T14:28:30.783Z,13.05
2022-10-19T14:31:01.132Z,13.04
2022-10-19T14:33:34.260Z,12.94
2022-10-19T14:36:01.420Z,12.84
2022-10-19T14:38:39.875Z,12.66
2022-10-19T14:41:19.015Z,12.93
2022-10-19T14:43:45.539Z,12.92
2022-10-19T14:46:16.196Z,12.98
2022-10-19T14:48:48.639Z,12.91
2022-10-19T14:51:27.101Z,12.87
2022-10-19T14:54:05.228Z,13.00
2022-10-19T14:56:42.787Z,13.08
2022-10-19T14:59:18.350Z,13.08
2022-10-19T15:01:50.432Z,12.93
2022-10-19T15:04:28.233Z,12.88
2022-10-19T15:06:55.770Z,12.86
2022-10-19T15:09:48.651Z,12.91
2022-10-19T15:12:21.364Z,13.08
2022-10-19T15:14:48.567Z,13.00
2022-10-19T15:17:28.166Z,13.13
2022-10-19T15:19:56.077Z,13.14
2022-10-19T15:22:24.076Z,13.18
2022-10-19T15:24:55.643Z,13.26
2022-10-19T15:27:29.064Z,13.18
2022-10-19T15:29:57.005Z,13.13
2022-10-19T15:32:45.176Z,13.11
2022-10-19T15:35:19.769Z,13.11
2022-10-19T15:37:49.003Z,13.05
2022-10-19T15:40:36.099Z,13.07
2022-10-19T15:43:34.669Z,13.06
2022-10-19T15:46:20.973Z,12.96
2022-10-19T15:48:58.296Z,13.03
2022-10-19T15:51:24.605Z,13.03
2022-10-19T15:54:02.644Z,12.83
2022-10-19T15:56:31.093Z,12.73
2022-10-19T15:58:59.456Z,12.73
2022-10-19T16:01:28.259Z,12.61
2022-10-19T16:03:55.278Z,12.58
2022-10-19T16:06:24.488Z,12.42
2022-10-19T16:08:51.279Z,12.24
2022-10-19T16:11:24.277Z,12.12
2022-10-19T16:13:51.010Z,11.91
2022-10-19T16:16:29.694Z,11.78
2022-10-19T16:18:56.844Z,11.67
2022-10-19T16:21:32.579Z,11.52
2022-10-19T16:23:59.490Z,11.50
2022-10-19T16:26:26.440Z,11.33
2022-10-19T16:28:54.273Z,11.33
2022-10-19T16:31:21.585Z,11.20
2022-10-19T16:33:47.963Z,11.03
2022-10-19T16:36:14.872Z,10.92
2022-10-19T16:38:41.250Z,10.95
2022-10-19T16:41:10.160Z,10.80
2022-10-19T16:43:37.155Z,10.69
2022-10-19T16:46:04.655Z,10.69
2022-10-19T16:48:31.819Z,10.49
2022-10-19T16:51:07.068Z,10.58
2022-10-19T16:53:34.262Z,10.38
2022-10-19T16:56:05.711Z,10.29
2022-10-19T16:58:32.100Z,10.24
2022-10-19T17:01:01.392Z,10.22
2022-10-19T17:03:30.872Z,10.11
2022-10-19T17:05:57.191Z,10.14
2022-10-19T17:08:36.586Z,9.94
2022-10-19T17:11:18.767Z,9.91
2022-10-19T17:13:47.811Z,9.77
2022-10-19T17:16:15.009Z,9.93
2022-10-19T17:18:42.965Z,9.95
2022-10-19T17:21:13.091Z,9.98
2022-10-19T17:23:40.231Z,9.87
2022-10-19T17:26:08.080Z,9.90
2022-10-19T17:28:35.763Z,9.86
2022-10-19T17:31:07.556Z,9.84
2022-10-19T17:33:35.093Z,9.80
2022-10-19T17:36:10.562Z,9.79
2022-10-19T17:38:37.888Z,9.68
2022-10-19T17:41:07.655Z,9.61
2022-10-19T17:43:35.203Z,9.52
2022-10-19T17:46:02.984Z,9.57
2022-10-19T17:48:29.860Z,9.45
2022-10-19T17:50:58.044Z,9.39
2022-10-19T17:53:24.556Z,9.43
2022-10-19T17:55:50.919Z,9.29
2022-10-19T17:58:17.483Z,9.53
2022-10-19T18:00:43.998Z,9.49
2022-10-19T18:03:10.522Z,9.45
2022-10-19T18:05:37.087Z,9.48
2022-10-19T18:08:03.413Z,9.47
2022-10-19T18:10:29.754Z,9.34
2022-10-19T18:12:56.152Z,9.34
2022-10-19T18:15:22.511Z,9.41
2022-10-19T18:17:48.851Z,9.33
2022-10-19T18:20:15.329Z,9.26
2022-10-19T18:25:09.357Z,9.16
2022-10-19T18:27:36.073Z,9.18
2022-10-19T18:30:02.894Z,8.97
2022-10-19T18:32:29.338Z,8.96
2022-10-19T18:34:55.745Z,9.00
2022-10-19T18:37:22.152Z,8.97
2022-10-19T18:39:48.466Z,8.91
2022-10-19T18:42:14.884Z,8.91
2022-10-19T18:44:41.249Z,8.67
2022-10-19T18:47:07.589Z,8.76
2022-10-19T18:49:34.289Z,8.63
2022-10-19T18:52:00.858Z,8.61
2022-10-19T18:54:27.918Z,8.70
2022-10-19T18:56:55.193Z,8.69
2022-10-19T18:59:21.669Z,8.67
2022-10-19T19:01:48.071Z,8.50
2022-10-19T19:04:14.648Z,8.45
2022-10-19T19:06:41.957Z,8.39
2022-10-19T19:09:10.837Z,8.30
2022-10-19T19:11:40.675Z,8.24
2022-10-19T19:14:12.784Z,8.29
2022-10-19T19:16:40.886Z,8.25
2022-10-19T19:19:08.525Z,7.88
2022-10-19T19:21:36.628Z,8.05
2022-10-19T19:24:05.753Z,8.07
2022-10-19T19:26:36.816Z,8.24
2022-10-19T19:29:05.169Z,7.93
2022-10-19T19:31:31.611Z,8.19
2022-10-19T19:34:01.035Z,8.40
2022-10-19T19:36:28.217Z,8.45
2022-10-19T19:38:56.460Z,8.52
2022-10-19T19:41:22.883Z,8.65
2022-10-19T19:43:49.246Z,8.80
2022-10-19T19:46:18.142Z,8.63
2022-10-19T19:48:47.173Z,8.94
2022-10-19T19:51:19.735Z,8.99
2022-10-19T19:53:47.339Z,8.86
2022-10-19T19:56:16.046Z,8.86
2022-10-19T19:58:43.114Z,8.75
2022-10-19T20:01:20.471Z,8.79
2022-10-19T20:03:47.673Z,8.74
2022-10-19T20:06:17.265Z,8.66
2022-10-19T20:08:45.387Z,8.56
2022-10-19T20:11:14.371Z,8.44
2022-10-19T20:13:40.741Z,8.33
2022-10-19T20:16:09.692Z,8.36
2022-10-19T20:18:36.145Z,8.42
2022-10-19T20:21:04.675Z,8.28
2022-10-19T20:23:31.830Z,8.26
2022-10-19T20:25:58.241Z,8.22
2022-10-19T20:28:26.153Z,8.22
2022-10-19T20:31:03.642Z,8.08
2022-10-19T20:33:31.788Z,8.02
2022-10-19T20:36:08.112Z,7.85
2022-10-19T20:38:35.834Z,7.98
2022-10-19T20:41:08.188Z,7.92
2022-10-19T20:43:36.283Z,7.88
2022-10-19T20:46:07.937Z,7.84
2022-10-19T20:48:34.335Z,7.78
2022-10-19T20:51:11.635Z,7.74
2022-10-19T20:53:38.595Z,7.68
2022-10-19T20:56:10.115Z,7.53
2022-10-19T20:58:42.615Z,7.65
2022-10-19T21:01:19.224Z,7.66
2022-10-19T21:04:00.701Z,7.51
2022-10-19T21:06:29.657Z,7.55
2022-10-19T21:08:56.448Z,7.56
2022-10-19T21:11:27.098Z,7.51
2022-10-19T21:13:55.980Z,7.50
2022-10-19T21:16:24.298Z,7.45
2022-10-19T21:18:50.801Z,7.58
2022-10-19T21:21:20.185Z,7.43
2022-10-19T21:23:49.309Z,7.44
2022-10-19T21:26:16.708Z,7.46
2022-10-19T21:28:47.752Z,7.48
2022-10-19T21:31:15.657Z,7.50
2022-10-19T21:33:42.276Z,7.40
2022-10-19T21:36:09.762Z,7.54
2022-10-19T21:38:36.515Z,7.55
2022-10-19T21:41:05.739Z,7.49
2022-10-19T21:43:32.966Z,7.56
2022-10-19T21:46:02.674Z,7.45
2022-10-19T21:48:29.931Z,7.38
2022-10-19T21:50:56.397Z,7.26
2022-10-19T21:53:25.945Z,7.35
2022-10-19T21:55:53.667Z,7.41
2022-10-19T21:58:22.895Z,7.37
2022-10-19T22:00:49.737Z,7.54
2022-10-19T22:03:18.863Z,7.55
2022-10-19T22:05:52.148Z,7.45
2022-10-19T22:08:18.467Z,7.45
2022-10-19T22:10:44.787Z,7.49
2022-10-19T22:13:11.111Z,7.56
2022-10-19T22:15:39.067Z,7.53
2022-10-19T22:18:05.436Z,7.60
2022-10-19T22:20:32.253Z,7.55
2022-10-19T22:22:58.590Z,7.56
2022-10-19T22:25:24.914Z,7.48
2022-10-19T22:27:51.232Z,7.57
2022-10-19T22:30:17.604Z,7.55
2022-10-19T22:32:44.017Z,7.47
2022-10-19T22:35:10.366Z,7.46
2022-10-19T22:37:36.724Z,7.53
2022-10-19T22:40:03.465Z,7.54
2022-10-19T22:42:29.768Z,7.58
2022-10-19T22:44:56.160Z,7.66
2022-10-19T22:47:22.525Z,7.57
2022-10-19T22:49:48.892Z,7.47
2022-10-19T22:52:16.574Z,7.65
2022-10-19T22:54:43.266Z,7.62
2022-10-19T22:57:10.317Z,7.50
2022-10-19T22:59:36.677Z,7.54
2022-10-19T23:02:03.623Z,7.38
2022-10-19T23:04:30.152Z,7.45
2022-10-19T23:06:56.560Z,7.52
2022-10-19T23:09:23.081Z,7.42
2022-10-19T23:11:49.423Z,7.40
2022-10-19T23:14:15.927Z,7.48
2022-10-19T23:16:42.252Z,7.47
2022-10-19T23:19:08.562Z,7.57
2022-10-19T23:21:34.939Z,7.30
2022-10-19T23:24:01.333Z,7.43
2022-10-19T23:26:27.652Z,7.43
2022-10-19T23:28:54.039Z,7.31
2022-10-19T23:31:24.614Z,7.33
2022-10-19T23:33:52.345Z,7.28
2022-10-19T23:36:27.873Z,7.30
2022-10-19T23:38:56.161Z,7.18
2022-10-19T23:41:22.710Z,7.24
2022-10-19T23:43:49.107Z,7.28
2022-10-19T23:46:15.538Z,7.16
2022-10-19T23:48:42.144Z,7.12
2022-10-19T23:51:12.262Z,7.14
2022-10-19T23:53:41.427Z,7.01
2022-10-19T23:56:14.705Z,6.94
2022-10-19T23:58:41.073Z,6.89
